Аэропорт: Большое Савино. Пермь

ICAO: USPP

METAR:
2021-01-24 19:00:00
USPP 241900Z 21003MPS 9000 -SN BKN012 M08/M08 Q1023 R21/390135 NOSIG RMK QFE756
METAR:
2021-01-24 16:55:00
TAF USPP 241655Z 2418/2518 20003G08MPS 6000 -SN OVC011 TEMPO 2418/2506 1100 FZDZ SN BR OVC004 BECMG 2503/2504 23003G13MPS BECMG 2506/2507 BKN016